^^
Paulen-Weather Station Historical Data
 
Daily Summary for July 05, 2022 Units:  Metric    English   Both
Daily Weekly Monthly Yearly Custom
  Current: High: Low: Average:
Temperature: 17 °C 19 °C 12 °C 14.5 °C
Dew Point: 11 °C 13 °C 10 °C 11.5 °C
Humidity: 67% 93% 62% 83%
Wind Speed: 10km/h 30km/h 3km/h 11.8km/h
Wind Gust: 8km/h 25km/h - -
WindW - - WSW
Pressure: 1013.48 hPa 1013.58 hPa 1010.26 hPa -
Precipitation: 0 mm      
Historical Graphs
 
 
Tabular Data for July 05, 2022
Time Temperature Dew Point Pressure Wind Wind Speed Wind Gust Humidity Rainfall Rate (Hourly) solar
00:04 13 °C 11 °C 1010.4 hPa W 6 km/h 5 km/h 90% 0.2 mm 0 W/m2
00:09 13 °C 11 °C 1010.43 hPa WSW 8 km/h 6 km/h 91% 0.2 mm 0 W/m2
00:14 13 °C 11 °C 1010.36 hPa W 8 km/h 6 km/h 91% 0.2 mm 0 W/m2
00:19 13 °C 11 °C 1010.36 hPa W 8 km/h 6 km/h 91% 0.2 mm 0 W/m2
00:24 13 °C 11 °C 1010.36 hPa WSW 9 km/h 7 km/h 91% 0.2 mm 0 W/m2
00:29 13 °C 11 °C 1010.3 hPa WSW 9 km/h 7 km/h 92% 0.2 mm 0 W/m2
00:34 13 °C 11 °C 1010.33 hPa WSW 10 km/h 9 km/h 92% 0.2 mm 0 W/m2
00:39 13 °C 11 °C 1010.33 hPa SW 7 km/h 5 km/h 92% 0.2 mm 0 W/m2
00:44 12 °C 11 °C 1010.33 hPa WSW 9 km/h 6 km/h 92% 0.2 mm 0 W/m2
00:49 12 °C 11 °C 1010.33 hPa WSW 12 km/h 8 km/h 92% 0.2 mm 0 W/m2
00:54 12 °C 11 °C 1010.36 hPa W 9 km/h 7 km/h 92% 0.2 mm 0 W/m2
00:59 12 °C 11 °C 1010.4 hPa W 10 km/h 7 km/h 92% 0.2 mm 0 W/m2
01:04 12 °C 11 °C 1010.36 hPa WSW 6 km/h 6 km/h 92% 0 mm 0 W/m2
01:09 12 °C 11 °C 1010.4 hPa W 8 km/h 7 km/h 92% 0 mm 0 W/m2
01:14 12 °C 11 °C 1010.4 hPa WSW 7 km/h 6 km/h 92% 0 mm 0 W/m2
01:19 12 °C 11 °C 1010.36 hPa WSW 8 km/h 8 km/h 92% 0 mm 0 W/m2
01:24 12 °C 11 °C 1010.26 hPa W 8 km/h 6 km/h 92% 0 mm 0 W/m2
01:29 12 °C 11 °C 1010.3 hPa WSW 9 km/h 5 km/h 92% 0 mm 0 W/m2
01:34 12 °C 11 °C 1010.33 hPa W 10 km/h 7 km/h 92% 0 mm 0 W/m2
01:39 12 °C 11 °C 1010.4 hPa WSW 7 km/h 7 km/h 92% 0 mm 0 W/m2
01:44 12 °C 11 °C 1010.43 hPa WSW 11 km/h 8 km/h 93% 0 mm 0 W/m2
01:49 12 °C 11 °C 1010.46 hPa WSW 8 km/h 5 km/h 93% 0 mm 0 W/m2
01:54 12 °C 11 °C 1010.33 hPa W 8 km/h 6 km/h 93% 0 mm 0 W/m2
01:59 12 °C 11 °C 1010.36 hPa W 10 km/h 7 km/h 93% 0 mm 0 W/m2
02:04 12 °C 11 °C 1010.4 hPa WSW 9 km/h 9 km/h 92% 0 mm 0 W/m2
02:09 12 °C 11 °C 1010.33 hPa W 8 km/h 7 km/h 92% 0 mm 0 W/m2
02:14 12 °C 11 °C 1010.36 hPa W 9 km/h 8 km/h 92% 0 mm 0 W/m2
02:19 12 °C 11 °C 1010.43 hPa WSW 8 km/h 6 km/h 92% 0 mm 0 W/m2
02:24 12 °C 11 °C 1010.4 hPa W 6 km/h 5 km/h 92% 0 mm 0 W/m2
02:29 12 °C 11 °C 1010.46 hPa WSW 9 km/h 6 km/h 92% 0 mm 0 W/m2
02:34 12 °C 11 °C 1010.5 hPa WSW 8 km/h 7 km/h 91% 0 mm 0 W/m2
02:39 12 °C 11 °C 1010.53 hPa SW 10 km/h 7 km/h 91% 0 mm 0 W/m2
02:44 12 °C 11 °C 1010.63 hPa WSW 9 km/h 7 km/h 91% 0 mm 0 W/m2
02:49 12 °C 11 °C 1010.6 hPa WSW 10 km/h 8 km/h 91% 0 mm 0 W/m2
02:54 12 °C 11 °C 1010.63 hPa SW 9 km/h 6 km/h 91% 0 mm 0 W/m2
02:59 12 °C 11 °C 1010.63 hPa WSW 11 km/h 7 km/h 91% 0 mm 0 W/m2
03:04 12 °C 11 °C 1010.7 hPa WSW 7 km/h 7 km/h 91% 0 mm 0 W/m2
03:09 12 °C 11 °C 1010.67 hPa WSW 9 km/h 7 km/h 92% 0 mm 0 W/m2
03:14 12 °C 11 °C 1010.67 hPa WSW 7 km/h 6 km/h 92% 0 mm 0 W/m2
03:19 12 °C 11 °C 1010.67 hPa WSW 9 km/h 7 km/h 92% 0 mm 0 W/m2
03:24 12 °C 11 °C 1010.63 hPa WSW 7 km/h 6 km/h 92% 0 mm 0 W/m2
03:29 12 °C 11 °C 1010.6 hPa SW 7 km/h 6 km/h 92% 0 mm 0 W/m2
03:34 12 °C 11 °C 1010.6 hPa WSW 8 km/h 7 km/h 92% 0 mm 0 W/m2
03:39 12 °C 11 °C 1010.6 hPa SW 7 km/h 5 km/h 92% 0 mm 0 W/m2
03:44 12 °C 11 °C 1010.57 hPa WSW 10 km/h 7 km/h 92% 0 mm 0 W/m2
03:49 12 °C 11 °C 1010.67 hPa WSW 10 km/h 9 km/h 92% 0 mm 0 W/m2
03:54 12 °C 11 °C 1010.67 hPa WSW 10 km/h 6 km/h 92% 0 mm 0 W/m2
03:59 12 °C 11 °C 1010.67 hPa WSW 10 km/h 8 km/h 92% 0 mm 0 W/m2
04:04 12 °C 11 °C 1010.67 hPa WSW 7 km/h 5 km/h 92% 0 mm 0 W/m2
04:09 12 °C 11 °C 1010.67 hPa SW 7 km/h 5 km/h 93% 0 mm 0 W/m2
04:14 12 °C 11 °C 1010.7 hPa WSW 8 km/h 6 km/h 93% 0 mm 0 W/m2
04:19 12 °C 11 °C 1010.67 hPa WSW 8 km/h 7 km/h 93% 0 mm 0 W/m2
04:24 12 °C 11 °C 1010.74 hPa WSW 11 km/h 8 km/h 93% 0 mm 5 W/m2
04:29 12 °C 11 °C 1010.8 hPa WSW 7 km/h 6 km/h 93% 0 mm 7 W/m2
04:34 12 °C 11 °C 1010.8 hPa WSW 7 km/h 5 km/h 93% 0 mm 9 W/m2
04:39 12 °C 11 °C 1010.8 hPa SSW 8 km/h 7 km/h 93% 0 mm 11 W/m2
04:44 12 °C 11 °C 1010.84 hPa WSW 12 km/h 7 km/h 92% 0 mm 11 W/m2
04:49 12 °C 11 °C 1010.87 hPa W 9 km/h 7 km/h 92% 0 mm 12 W/m2
04:54 12 °C 11 °C 1010.9 hPa W 7 km/h 6 km/h 92% 0 mm 11 W/m2
04:59 12 °C 11 °C 1010.94 hPa WSW 7 km/h 5 km/h 92% 0 mm 12 W/m2
05:04 12 °C 11 °C 1010.97 hPa WSW 7 km/h 5 km/h 92% 0 mm 21 W/m2
05:09 13 °C 11 °C 1011.01 hPa SW 8 km/h 8 km/h 92% 0 mm 23 W/m2
05:14 13 °C 11 °C 1011.04 hPa WSW 10 km/h 8 km/h 91% 0 mm 16 W/m2
05:19 13 °C 11 °C 1011.07 hPa WSW 9 km/h 9 km/h 91% 0 mm 11 W/m2
05:24 13 °C 11 °C 1011.04 hPa W 7 km/h 6 km/h 91% 0 mm 12 W/m2
05:29 13 °C 11 °C 1011.04 hPa WSW 7 km/h 6 km/h 91% 0 mm 16 W/m2
05:34 13 °C 11 °C 1011.07 hPa WSW 7 km/h 6 km/h 91% 0 mm 19 W/m2
05:39 13 °C 11 °C 1011.11 hPa W 6 km/h 4 km/h 91% 0 mm 23 W/m2
05:44 13 °C 11 °C 1011.14 hPa W 5 km/h 5 km/h 90% 0 mm 25 W/m2
05:49 13 °C 11 °C 1011.14 hPa W 6 km/h 4 km/h 90% 0 mm 25 W/m2
05:54 12 °C 11 °C 1011.14 hPa W 6 km/h 5 km/h 90% 0 mm 25 W/m2
05:59 12 °C 11 °C 1011.14 hPa WSW 5 km/h 3 km/h 90% 0 mm 21 W/m2
06:04 12 °C 11 °C 1011.14 hPa WNW 5 km/h 4 km/h 91% 0 mm 19 W/m2
06:09 12 °C 11 °C 1011.11 hPa WSW 5 km/h 3 km/h 91% 0 mm 18 W/m2
06:14 12 °C 11 °C 1011.24 hPa W 3 km/h 3 km/h 91% 0 mm 23 W/m2
06:19 12 °C 11 °C 1011.21 hPa W 4 km/h 3 km/h 91% 0 mm 32 W/m2
06:24 12 °C 11 °C 1011.21 hPa WSW 4 km/h 4 km/h 91% 0 mm 39 W/m2
06:29 12 °C 11 °C 1011.24 hPa WSW 5 km/h 5 km/h 91% 0 mm 39 W/m2
06:34 12 °C 11 °C 1011.24 hPa W 4 km/h 3 km/h 91% 0 mm 37 W/m2
06:39 12 °C 11 °C 1011.24 hPa W 5 km/h 3 km/h 91% 0 mm 35 W/m2
06:44 12 °C 11 °C 1011.28 hPa W 6 km/h 5 km/h 91% 0 mm 37 W/m2
06:49 12 °C 11 °C 1011.28 hPa W 5 km/h 3 km/h 91% 0 mm 40 W/m2
06:54 12 °C 11 °C 1011.24 hPa WSW 3 km/h 2 km/h 91% 0 mm 44 W/m2
06:59 12 °C 11 °C 1011.31 hPa WSW 5 km/h 4 km/h 91% 0 mm 46 W/m2
07:04 12 °C 11 °C 1011.34 hPa W 6 km/h 4 km/h 91% 0 mm 49 W/m2
07:09 12 °C 11 °C 1011.38 hPa W 4 km/h 3 km/h 91% 0 mm 56 W/m2
07:14 12 °C 11 °C 1011.45 hPa W 5 km/h 3 km/h 91% 0 mm 56 W/m2
07:19 13 °C 11 °C 1011.45 hPa W 6 km/h 5 km/h 91% 0 mm 49 W/m2
07:24 13 °C 11 °C 1011.48 hPa WSW 5 km/h 4 km/h 91% 0 mm 62 W/m2
07:29 13 °C 11 °C 1011.51 hPa WSW 7 km/h 6 km/h 91% 0 mm 67 W/m2
07:34 13 °C 11 °C 1011.55 hPa W 6 km/h 5 km/h 91% 0 mm 76 W/m2
07:39 13 °C 11 °C 1011.62 hPa W 5 km/h 4 km/h 91% 0 mm 81 W/m2
07:44 13 °C 11 °C 1011.58 hPa SW 6 km/h 3 km/h 92% 0 mm 84 W/m2
07:49 13 °C 11 °C 1011.58 hPa SSW 8 km/h 9 km/h 92% 0 mm 86 W/m2
07:54 13 °C 11 °C 1011.62 hPa SW 6 km/h 6 km/h 92% 0 mm 90 W/m2
07:59 13 °C 12 °C 1011.58 hPa SW 8 km/h 6 km/h 92% 0 mm 97 W/m2
08:04 13 °C 12 °C 1011.62 hPa SW 6 km/h 6 km/h 92% 0 mm 104 W/m2
08:09 13 °C 12 °C 1011.68 hPa SSW 10 km/h 10 km/h 91% 0 mm 105 W/m2
08:14 13 °C 11 °C 1011.68 hPa SW 9 km/h 8 km/h 91% 0 mm 116 W/m2
08:19 13 °C 12 °C 1011.72 hPa SSW 8 km/h 7 km/h 91% 0 mm 123 W/m2
08:24 13 °C 12 °C 1011.68 hPa SW 11 km/h 9 km/h 91% 0 mm 128 W/m2
08:29 13 °C 12 °C 1011.72 hPa SW 13 km/h 10 km/h 90% 0 mm 130 W/m2
08:34 13 °C 12 °C 1011.75 hPa WSW 8 km/h 6 km/h 90% 0 mm 128 W/m2
08:39 13 °C 12 °C 1011.79 hPa SW 13 km/h 10 km/h 89% 0 mm 120 W/m2
08:44 13 °C 11 °C 1011.79 hPa SW 12 km/h 9 km/h 89% 0 mm 107 W/m2
08:49 13 °C 12 °C 1011.85 hPa SW 9 km/h 7 km/h 89% 0 mm 113 W/m2
08:54 13 °C 12 °C 1011.92 hPa WSW 10 km/h 7 km/h 89% 0 mm 123 W/m2
08:59 13 °C 12 °C 1011.95 hPa SW 10 km/h 7 km/h 89% 0 mm 149 W/m2
09:04 13 °C 12 °C 1011.99 hPa WSW 13 km/h 7 km/h 89% 0 mm 172 W/m2
09:09 13 °C 12 °C 1012.06 hPa SSE 8 km/h 5 km/h 89% 0 mm 193 W/m2
09:14 14 °C 12 °C 1012.09 hPa WNW 11 km/h 8 km/h 88% 0 mm 204 W/m2
09:19 14 °C 12 °C 1012.02 hPa SW 9 km/h 8 km/h 88% 0 mm 213 W/m2
09:24 14 °C 12 °C 1012.06 hPa WSW 11 km/h 7 km/h 87% 0 mm 225 W/m2
09:29 14 °C 12 °C 1012.06 hPa SSW 10 km/h 6 km/h 88% 0 mm 244 W/m2
09:34 14 °C 12 °C 1012.06 hPa WSW 8 km/h 7 km/h 88% 0 mm 276 W/m2
09:39 14 °C 12 °C 1012.12 hPa WSW 12 km/h 7 km/h 87% 0 mm 309 W/m2
09:44 14 °C 12 °C 1012.16 hPa SW 11 km/h 9 km/h 87% 0 mm 339 W/m2
09:49 14 °C 12 °C 1012.19 hPa SW 14 km/h 10 km/h 86% 0 mm 380 W/m2
09:54 14 °C 12 °C 1012.23 hPa WSW 9 km/h 7 km/h 86% 0 mm 438 W/m2
09:59 15 °C 12 °C 1012.26 hPa SW 13 km/h 10 km/h 85% 0 mm 438 W/m2
10:04 15 °C 12 °C 1012.23 hPa SW 16 km/h 11 km/h 85% 0 mm 490 W/m2
10:09 15 °C 12 °C 1012.23 hPa SSW 11 km/h 9 km/h 85% 0 mm 490 W/m2
10:14 15 °C 12 °C 1012.29 hPa WSW 12 km/h 8 km/h 84% 0 mm 515 W/m2
10:19 15 °C 12 °C 1012.33 hPa SW 16 km/h 10 km/h 84% 0 mm 515 W/m2
10:24 15 °C 12 °C 1012.36 hPa WSW 16 km/h 13 km/h 83% 0 mm 475 W/m2
10:29 15 °C 12 °C 1012.46 hPa SW 13 km/h 8 km/h 83% 0 mm 394 W/m2
10:34 15 °C 12 °C 1012.43 hPa SW 14 km/h 11 km/h 82% 0 mm 378 W/m2
10:39 15 °C 12 °C 1012.46 hPa SW 13 km/h 11 km/h 82% 0 mm 327 W/m2
10:44 15 °C 12 °C 1012.43 hPa SW 12 km/h 10 km/h 82% 0 mm 267 W/m2
10:49 15 °C 12 °C 1012.36 hPa SW 10 km/h 8 km/h 82% 0 mm 276 W/m2
10:54 15 °C 12 °C 1012.39 hPa WSW 12 km/h 8 km/h 82% 0 mm 302 W/m2
10:59 15 °C 12 °C 1012.46 hPa WSW 12 km/h 9 km/h 82% 0 mm 304 W/m2
11:04 15 °C 12 °C 1012.5 hPa WSW 11 km/h 6 km/h 81% 0 mm 343 W/m2
11:09 15 °C 12 °C 1012.5 hPa WSW 14 km/h 9 km/h 81% 0 mm 362 W/m2
11:14 15 °C 12 °C 1012.5 hPa SW 16 km/h 12 km/h 80% 0 mm 394 W/m2
11:19 15 °C 12 °C 1012.39 hPa SW 10 km/h 8 km/h 80% 0 mm 411 W/m2
11:24 15 °C 12 °C 1012.39 hPa SW 16 km/h 12 km/h 79% 0 mm 424 W/m2
11:29 16 °C 12 °C 1012.43 hPa W 17 km/h 12 km/h 79% 0 mm 496 W/m2
11:34 16 °C 12 °C 1012.43 hPa WSW 17 km/h 11 km/h 79% 0 mm 564 W/m2
11:39 16 °C 12 °C 1012.46 hPa WSW 18 km/h 13 km/h 78% 0 mm 594 W/m2
11:44 16 °C 12 °C 1012.46 hPa SW 16 km/h 9 km/h 78% 0 mm 545 W/m2
11:49 16 °C 12 °C 1012.5 hPa SSW 13 km/h 9 km/h 78% 0 mm 411 W/m2
11:54 16 °C 12 °C 1012.56 hPa SW 13 km/h 9 km/h 78% 0 mm 411 W/m2
11:59 16 °C 12 °C 1012.67 hPa SSW 16 km/h 13 km/h 78% 0 mm 448 W/m2
12:04 16 °C 12 °C 1012.77 hPa WSW 13 km/h 9 km/h 78% 0 mm 438 W/m2
12:09 16 °C 12 °C 1012.84 hPa WSW 18 km/h 16 km/h 78% 0 mm 503 W/m2
12:14 16 °C 12 °C 1012.84 hPa SW 16 km/h 11 km/h 78% 0 mm 424 W/m2
12:19 16 °C 12 °C 1012.84 hPa WSW 12 km/h 7 km/h 78% 0 mm 469 W/m2
12:24 16 °C 12 °C 1012.8 hPa SW 15 km/h 10 km/h 77% 0 mm 610 W/m2
12:29 16 °C 12 °C 1012.77 hPa SSW 15 km/h 11 km/h 77% 0 mm 598 W/m2
12:34 16 °C 12 °C 1012.73 hPa SW 16 km/h 12 km/h 78% 0 mm 439 W/m2
12:39 16 °C 12 °C 1012.77 hPa SW 17 km/h 14 km/h 78% 0 mm 506 W/m2
12:44 16 °C 12 °C 1012.7 hPa SSW 10 km/h 7 km/h 79% 0 mm 457 W/m2
12:49 16 °C 12 °C 1012.73 hPa WSW 15 km/h 13 km/h 78% 0 mm 450 W/m2
12:54 16 °C 12 °C 1012.77 hPa SW 14 km/h 10 km/h 78% 0 mm 420 W/m2
12:59 16 °C 12 °C 1012.84 hPa WSW 11 km/h 8 km/h 78% 0 mm 418 W/m2
13:04 16 °C 13 °C 1012.84 hPa SSW 12 km/h 8 km/h 78% 0 mm 424 W/m2
13:09 16 °C 12 °C 1012.87 hPa WNW 15 km/h 9 km/h 78% 0 mm 399 W/m2
13:14 16 °C 12 °C 1012.9 hPa WSW 15 km/h 14 km/h 78% 0 mm 348 W/m2
13:19 16 °C 12 °C 1012.87 hPa WSW 20 km/h 14 km/h 78% 0 mm 350 W/m2
13:24 16 °C 12 °C 1012.87 hPa W 17 km/h 11 km/h 78% 0 mm 364 W/m2
13:29 16 °C 12 °C 1012.9 hPa WSW 17 km/h 11 km/h 77% 0 mm 364 W/m2
13:34 16 °C 12 °C 1012.9 hPa W 13 km/h 10 km/h 77% 0 mm 330 W/m2
13:39 16 °C 12 °C 1012.9 hPa W 13 km/h 9 km/h 77% 0 mm 352 W/m2
13:44 16 °C 12 °C 1012.9 hPa WSW 13 km/h 8 km/h 77% 0 mm 355 W/m2
13:49 16 °C 12 °C 1012.84 hPa WSW 16 km/h 11 km/h 77% 0 mm 381 W/m2
13:54 16 °C 12 °C 1012.87 hPa W 13 km/h 12 km/h 77% 0 mm 420 W/m2
13:59 16 °C 12 °C 1012.94 hPa WSW 15 km/h 14 km/h 76% 0 mm 418 W/m2
14:04 16 °C 12 °C 1012.94 hPa WSW 12 km/h 9 km/h 76% 0 mm 415 W/m2
14:09 16 °C 12 °C 1012.9 hPa SSW 17 km/h 12 km/h 77% 0 mm 403 W/m2
14:14 16 °C 12 °C 1012.87 hPa SW 15 km/h 10 km/h 77% 0 mm 364 W/m2
14:19 16 °C 12 °C 1012.87 hPa WSW 13 km/h 10 km/h 77% 0 mm 334 W/m2
14:24 16 °C 12 °C 1012.9 hPa SW 13 km/h 9 km/h 78% 0 mm 374 W/m2
14:29 16 °C 12 °C 1012.97 hPa SSW 10 km/h 8 km/h 78% 0 mm 401 W/m2
14:34 16 °C 12 °C 1013.04 hPa SW 14 km/h 10 km/h 77% 0 mm 425 W/m2
14:39 16 °C 12 °C 1013.04 hPa SW 16 km/h 12 km/h 76% 0 mm 434 W/m2
14:44 16 °C 12 °C 1013.04 hPa WSW 13 km/h 10 km/h 76% 0 mm 455 W/m2
14:49 17 °C 12 °C 1013 hPa SW 14 km/h 9 km/h 76% 0 mm 489 W/m2
14:54 17 °C 12 °C 1013.04 hPa SW 13 km/h 9 km/h 76% 0 mm 489 W/m2
14:59 17 °C 12 °C 1013.07 hPa S 14 km/h 14 km/h 76% 0 mm 424 W/m2
15:04 17 °C 13 °C 1013.14 hPa WSW 15 km/h 13 km/h 76% 0 mm 424 W/m2
15:09 17 °C 12 °C 1013.21 hPa WNW 15 km/h 11 km/h 75% 0 mm 392 W/m2
15:14 17 °C 12 °C 1013.24 hPa W 17 km/h 13 km/h 74% 0 mm 371 W/m2
15:19 17 °C 12 °C 1013.28 hPa W 15 km/h 11 km/h 75% 0 mm 387 W/m2
15:24 17 °C 12 °C 1013.31 hPa WSW 16 km/h 11 km/h 74% 0 mm 424 W/m2
15:29 17 °C 12 °C 1013.28 hPa SW 17 km/h 13 km/h 74% 0 mm 424 W/m2
15:34 17 °C 12 °C 1013.24 hPa SW 19 km/h 13 km/h 74% 0 mm 353 W/m2
15:39 17 °C 12 °C 1013.28 hPa SSW 12 km/h 10 km/h 75% 0 mm 425 W/m2
15:44 17 °C 12 °C 1013.21 hPa SW 16 km/h 11 km/h 75% 0 mm 468 W/m2
15:49 17 °C 12 °C 1013.21 hPa SW 16 km/h 12 km/h 75% 0 mm 468 W/m2
15:54 17 °C 12 °C 1013.21 hPa SW 17 km/h 11 km/h 75% 0 mm 431 W/m2
15:59 17 °C 12 °C 1013.24 hPa SW 16 km/h 9 km/h 75% 0 mm 383 W/m2
16:04 17 °C 12 °C 1013.21 hPa SW 15 km/h 11 km/h 75% 0 mm 399 W/m2
16:09 17 °C 12 °C 1013.21 hPa SSW 13 km/h 10 km/h 75% 0 mm 939 W/m2
16:14 17 °C 13 °C 1013.17 hPa SW 17 km/h 11 km/h 74% 0 mm 912 W/m2
16:19 17 °C 13 °C 1013.17 hPa SW 10 km/h 9 km/h 73% 0 mm 722 W/m2
16:24 17 °C 13 °C 1013.17 hPa SW 14 km/h 11 km/h 72% 0 mm 446 W/m2
16:29 17 °C 13 °C 1013.21 hPa SW 13 km/h 13 km/h 73% 0 mm 424 W/m2
16:34 17 °C 13 °C 1013.21 hPa SW 18 km/h 12 km/h 74% 0 mm 499 W/m2
16:39 17 °C 13 °C 1013.21 hPa WSW 12 km/h 10 km/h 74% 0 mm 700 W/m2
16:44 17 °C 13 °C 1013.21 hPa SSW 19 km/h 15 km/h 73% 0 mm 752 W/m2
16:49 17 °C 12 °C 1013.21 hPa SW 20 km/h 17 km/h 73% 0 mm 608 W/m2
16:54 17 °C 12 °C 1013.21 hPa SSW 16 km/h 14 km/h 74% 0 mm 599 W/m2
16:59 17 °C 13 °C 1013.17 hPa SSW 18 km/h 16 km/h 74% 0 mm 789 W/m2
17:04 17 °C 13 °C 1013.14 hPa SW 16 km/h 12 km/h 74% 0 mm 758 W/m2
17:09 18 °C 13 °C 1013.11 hPa W 14 km/h 12 km/h 73% 0 mm 642 W/m2
17:14 18 °C 12 °C 1013.14 hPa WNW 18 km/h 14 km/h 69% 0 mm 642 W/m2
17:19 18 °C 12 °C 1013.14 hPa W 17 km/h 14 km/h 68% 0 mm 635 W/m2
17:24 18 °C 12 °C 1013.11 hPa W 20 km/h 15 km/h 67% 0 mm 631 W/m2
17:29 19 °C 12 °C 1013.17 hPa WNW 18 km/h 16 km/h 65% 0 mm 617 W/m2
17:34 19 °C 12 °C 1013.11 hPa WNW 19 km/h 14 km/h 64% 0 mm 592 W/m2
17:39 19 °C 12 °C 1013.11 hPa WNW 19 km/h 16 km/h 63% 0 mm 578 W/m2
17:44 18 °C 12 °C 1013.17 hPa WNW 17 km/h 15 km/h 64% 0 mm 601 W/m2
17:49 18 °C 12 °C 1013.17 hPa NW 21 km/h 19 km/h 64% 0 mm 601 W/m2
17:54 18 °C 11 °C 1013.21 hPa WNW 19 km/h 17 km/h 64% 0 mm 578 W/m2
17:59 18 °C 12 °C 1013.24 hPa NW 16 km/h 18 km/h 66% 0 mm 570 W/m2
18:04 18 °C 11 °C 1013.31 hPa WNW 30 km/h 25 km/h 64% 0 mm 566 W/m2
18:09 18 °C 10 °C 1013.38 hPa WNW 23 km/h 16 km/h 62% 0 mm 538 W/m2
18:14 17 °C 10 °C 1013.34 hPa WNW 16 km/h 13 km/h 64% 0 mm 181 W/m2
18:19 17 °C 10 °C 1013.38 hPa WNW 20 km/h 17 km/h 65% 0 mm 188 W/m2
18:24 17 °C 11 °C 1013.34 hPa WNW 20 km/h 15 km/h 65% 0 mm 596 W/m2
18:29 18 °C 11 °C 1013.38 hPa WNW 22 km/h 16 km/h 63% 0 mm 529 W/m2
18:34 18 °C 11 °C 1013.38 hPa WNW 26 km/h 20 km/h 63% 0 mm 462 W/m2
18:39 17 °C 11 °C 1013.44 hPa W 17 km/h 14 km/h 65% 0 mm 181 W/m2
18:44 17 °C 11 °C 1013.48 hPa WNW 20 km/h 15 km/h 66% 0 mm 494 W/m2
18:49 17 °C 11 °C 1013.44 hPa WNW 14 km/h 11 km/h 66% 0 mm 494 W/m2
18:54 18 °C 11 °C 1013.41 hPa W 14 km/h 9 km/h 66% 0 mm 403 W/m2
18:59 18 °C 11 °C 1013.44 hPa W 13 km/h 11 km/h 65% 0 mm 371 W/m2
19:04 18 °C 11 °C 1013.44 hPa WNW 17 km/h 15 km/h 64% 0 mm 357 W/m2
19:09 17 °C 10 °C 1013.44 hPa W 21 km/h 15 km/h 63% 0 mm 350 W/m2
19:14 17 °C 10 °C 1013.48 hPa WNW 21 km/h 15 km/h 64% 0 mm 65 W/m2
19:19 16 °C 10 °C 1013.51 hPa WNW 18 km/h 14 km/h 66% 0 mm 91 W/m2
19:24 16 °C 10 °C 1013.58 hPa WNW 16 km/h 12 km/h 67% 0 mm 98 W/m2
19:29 16 °C 10 °C 1013.55 hPa WNW 16 km/h 12 km/h 68% 0 mm 81 W/m2
19:34 16 °C 10 °C 1013.55 hPa WNW 16 km/h 14 km/h 68% 0 mm 104 W/m2
19:39 16 °C 10 °C 1013.58 hPa W 13 km/h 10 km/h 68% 0 mm 127 W/m2
19:44 16 °C 10 °C 1013.58 hPa W 17 km/h 10 km/h 68% 0 mm 378 W/m2
19:49 17 °C 11 °C 1013.55 hPa WNW 14 km/h 12 km/h 68% 0 mm 378 W/m2
19:54 17 °C 11 °C 1013.48 hPa W 10 km/h 8 km/h 67% 0 mm 362 W/m2
Compliments of Weather Underground - 2 mb